sensor_id;sensor_type;location;lat;lon;timestamp;temperature;humidity
9951;DHT22;24074;49.254;6.702;2023-06-14T00:01:01;13.80;99.90
9951;DHT22;24074;49.254;6.702;2023-06-14T00:03:28;13.60;99.90
9951;DHT22;24074;49.254;6.702;2023-06-14T00:05:57;13.60;99.90
9951;DHT22;24074;49.254;6.702;2023-06-14T00:08:22;13.50;99.90
9951;DHT22;24074;49.254;6.702;2023-06-14T00:10:50;13.60;99.90
9951;DHT22;24074;49.254;6.702;2023-06-14T00:13:15;13.50;99.90
9951;DHT22;24074;49.254;6.702;2023-06-14T00:15:41;13.40;99.90
9951;DHT22;24074;49.254;6.702;2023-06-14T00:18:08;13.40;99.90
9951;DHT22;24074;49.254;6.702;2023-06-14T00:20:35;13.40;99.90
9951;DHT22;24074;49.254;6.702;2023-06-14T00:23:01;13.40;99.90
9951;DHT22;24074;49.254;6.702;2023-06-14T00:25:29;13.30;99.90
9951;DHT22;24074;49.254;6.702;2023-06-14T00:27:56;13.30;99.90
9951;DHT22;24074;49.254;6.702;2023-06-14T00:30:22;13.20;99.90
9951;DHT22;24074;49.254;6.702;2023-06-14T00:32:50;13.30;99.90
9951;DHT22;24074;49.254;6.702;2023-06-14T00:35:17;13.20;99.90
9951;DHT22;24074;49.254;6.702;2023-06-14T00:37:42;13.20;99.90
9951;DHT22;24074;49.254;6.702;2023-06-14T00:40:08;13.00;99.90
9951;DHT22;24074;49.254;6.702;2023-06-14T00:42:34;13.00;99.90
9951;DHT22;24074;49.254;6.702;2023-06-14T00:45:00;12.90;99.90
9951;DHT22;24074;49.254;6.702;2023-06-14T00:47:25;12.90;99.90
9951;DHT22;24074;49.254;6.702;2023-06-14T00:49:53;12.80;99.90
9951;DHT22;24074;49.254;6.702;2023-06-14T00:52:22;12.70;99.90
9951;DHT22;24074;49.254;6.702;2023-06-14T00:54:49;12.60;99.90
9951;DHT22;24074;49.254;6.702;2023-06-14T00:57:15;12.60;99.90
9951;DHT22;24074;49.254;6.702;2023-06-14T00:59:45;12.60;99.90
9951;DHT22;24074;49.254;6.702;2023-06-14T01:02:11;12.50;99.90
9951;DHT22;24074;49.254;6.702;2023-06-14T01:04:38;12.40;99.90
9951;DHT22;24074;49.254;6.702;2023-06-14T01:07:12;12.40;99.90
9951;DHT22;24074;49.254;6.702;2023-06-14T01:13:04;12.30;99.90
9951;DHT22;24074;49.254;6.702;2023-06-14T01:15:31;12.10;99.90
9951;DHT22;24074;49.254;6.702;2023-06-14T01:17:56;12.10;99.90
9951;DHT22;24074;49.254;6.702;2023-06-14T01:20:29;12.10;99.90
9951;DHT22;24074;49.254;6.702;2023-06-14T01:22:56;12.10;99.90
9951;DHT22;24074;49.254;6.702;2023-06-14T01:25:22;12.10;99.90
9951;DHT22;24074;49.254;6.702;2023-06-14T01:27:49;12.20;99.90
9951;DHT22;24074;49.254;6.702;2023-06-14T01:30:17;12.20;99.90
9951;DHT22;24074;49.254;6.702;2023-06-14T01:32:44;12.20;99.90
9951;DHT22;24074;49.254;6.702;2023-06-14T01:35:10;12.10;99.90
9951;DHT22;24074;49.254;6.702;2023-06-14T01:37:35;12.10;99.90
9951;DHT22;24074;49.254;6.702;2023-06-14T01:40:03;12.00;99.90
9951;DHT22;24074;49.254;6.702;2023-06-14T01:42:33;11.90;99.90
9951;DHT22;24074;49.254;6.702;2023-06-14T01:45:00;11.90;99.90
9951;DHT22;24074;49.254;6.702;2023-06-14T01:47:25;11.80;99.90
9951;DHT22;24074;49.254;6.702;2023-06-14T01:49:52;11.80;99.90
9951;DHT22;24074;49.254;6.702;2023-06-14T01:52:17;11.80;99.90
9951;DHT22;24074;49.254;6.702;2023-06-14T01:54:44;11.80;99.90
9951;DHT22;24074;49.254;6.702;2023-06-14T01:57:11;11.80;99.90
9951;DHT22;24074;49.254;6.702;2023-06-14T01:59:37;11.70;99.90
9951;DHT22;24074;49.254;6.702;2023-06-14T02:02:03;11.60;99.90
9951;DHT22;24074;49.254;6.702;2023-06-14T02:04:29;11.60;99.90
9951;DHT22;24074;49.254;6.702;2023-06-14T02:06:54;11.70;99.90
9951;DHT22;24074;49.254;6.702;2023-06-14T02:09:20;11.60;99.90
9951;DHT22;24074;49.254;6.702;2023-06-14T02:11:45;11.60;99.90
9951;DHT22;24074;49.254;6.702;2023-06-14T02:14:11;11.70;99.90
9951;DHT22;24074;49.254;6.702;2023-06-14T02:16:37;11.70;99.90
9951;DHT22;24074;49.254;6.702;2023-06-14T02:19:04;11.70;99.90
9951;DHT22;24074;49.254;6.702;2023-06-14T02:21:30;11.60;99.90
9951;DHT22;24074;49.254;6.702;2023-06-14T02:23:56;11.60;99.90
9951;DHT22;24074;49.254;6.702;2023-06-14T02:26:21;11.60;99.90
9951;DHT22;24074;49.254;6.702;2023-06-14T02:28:50;11.60;99.90
9951;DHT22;24074;49.254;6.702;2023-06-14T02:31:16;11.60;99.90
9951;DHT22;24074;49.254;6.702;2023-06-14T02:33:42;11.60;99.90
9951;DHT22;24074;49.254;6.702;2023-06-14T02:36:07;11.50;99.90
9951;DHT22;24074;49.254;6.702;2023-06-14T02:38:33;11.50;99.90
9951;DHT22;24074;49.254;6.702;2023-06-14T02:40:58;11.40;99.90
9951;DHT22;24074;49.254;6.702;2023-06-14T02:43:25;11.40;99.90
9951;DHT22;24074;49.254;6.702;2023-06-14T02:45:51;11.40;99.90
9951;DHT22;24074;49.254;6.702;2023-06-14T02:48:17;11.40;99.90
9951;DHT22;24074;49.254;6.702;2023-06-14T02:50:43;11.40;99.90
9951;DHT22;24074;49.254;6.702;2023-06-14T02:53:08;11.30;99.90
9951;DHT22;24074;49.254;6.702;2023-06-14T02:55:34;11.30;99.90
9951;DHT22;24074;49.254;6.702;2023-06-14T02:58:05;11.40;99.90
9951;DHT22;24074;49.254;6.702;2023-06-14T03:00:31;11.50;99.90
9951;DHT22;24074;49.254;6.702;2023-06-14T03:02:56;11.50;99.90
9951;DHT22;24074;49.254;6.702;2023-06-14T03:05:22;11.40;99.90
9951;DHT22;24074;49.254;6.702;2023-06-14T03:07:48;11.50;99.90
9951;DHT22;24074;49.254;6.702;2023-06-14T03:10:15;11.40;99.90
9951;DHT22;24074;49.254;6.702;2023-06-14T03:12:41;11.50;99.90
9951;DHT22;24074;49.254;6.702;2023-06-14T03:15:07;11.50;99.90
9951;DHT22;24074;49.254;6.702;2023-06-14T03:17:34;11.80;99.90
9951;DHT22;24074;49.254;6.702;2023-06-14T03:20:00;12.00;99.90
9951;DHT22;24074;49.254;6.702;2023-06-14T03:22:26;12.10;99.90
9951;DHT22;24074;49.254;6.702;2023-06-14T03:24:52;12.10;99.90
9951;DHT22;24074;49.254;6.702;2023-06-14T03:27:19;12.00;99.90
9951;DHT22;24074;49.254;6.702;2023-06-14T03:29:45;11.90;99.90
9951;DHT22;24074;49.254;6.702;2023-06-14T03:32:11;11.70;99.90
9951;DHT22;24074;49.254;6.702;2023-06-14T03:34:36;11.70;99.90
9951;DHT22;24074;49.254;6.702;2023-06-14T03:37:04;11.60;99.90
9951;DHT22;24074;49.254;6.702;2023-06-14T03:39:30;11.60;99.90
9951;DHT22;24074;49.254;6.702;2023-06-14T03:41:55;11.60;99.90
9951;DHT22;24074;49.254;6.702;2023-06-14T03:44:21;11.60;99.90
9951;DHT22;24074;49.254;6.702;2023-06-14T03:46:46;11.60;99.90
9951;DHT22;24074;49.254;6.702;2023-06-14T03:49:12;11.70;99.90
9951;DHT22;24074;49.254;6.702;2023-06-14T03:51:38;11.70;99.90
9951;DHT22;24074;49.254;6.702;2023-06-14T03:54:05;11.60;99.90
9951;DHT22;24074;49.254;6.702;2023-06-14T03:56:31;11.60;99.90
9951;DHT22;24074;49.254;6.702;2023-06-14T03:58:57;11.60;99.90
9951;DHT22;24074;49.254;6.702;2023-06-14T04:01:22;11.50;99.90
9951;DHT22;24074;49.254;6.702;2023-06-14T04:03:52;11.60;99.90
9951;DHT22;24074;49.254;6.702;2023-06-14T04:06:18;11.60;99.90
9951;DHT22;24074;49.254;6.702;2023-06-14T04:08:45;11.60;99.90
9951;DHT22;24074;49.254;6.702;2023-06-14T04:11:11;11.60;99.90
9951;DHT22;24074;49.254;6.702;2023-06-14T04:13:36;11.80;99.90
9951;DHT22;24074;49.254;6.702;2023-06-14T04:16:04;11.90;99.90
9951;DHT22;24074;49.254;6.702;2023-06-14T04:18:30;12.00;99.90
9951;DHT22;24074;49.254;6.702;2023-06-14T04:20:55;12.00;99.90
9951;DHT22;24074;49.254;6.702;2023-06-14T04:23:22;12.10;99.90
9951;DHT22;24074;49.254;6.702;2023-06-14T04:25:47;12.20;99.90
9951;DHT22;24074;49.254;6.702;2023-06-14T04:28:15;12.30;99.90
9951;DHT22;24074;49.254;6.702;2023-06-14T04:30:44;12.40;99.90
9951;DHT22;24074;49.254;6.702;2023-06-14T04:33:10;12.80;99.90
9951;DHT22;24074;49.254;6.702;2023-06-14T04:35:36;12.90;99.90
9951;DHT22;24074;49.254;6.702;2023-06-14T04:38:03;12.90;99.90
9951;DHT22;24074;49.254;6.702;2023-06-14T04:40:35;13.00;99.90
9951;DHT22;24074;49.254;6.702;2023-06-14T04:43:01;13.10;99.90
9951;DHT22;24074;49.254;6.702;2023-06-14T04:45:30;13.20;99.90
9951;DHT22;24074;49.254;6.702;2023-06-14T04:47:58;13.40;99.90
9951;DHT22;24074;49.254;6.702;2023-06-14T04:50:25;13.60;99.90
9951;DHT22;24074;49.254;6.702;2023-06-14T04:52:50;13.80;99.90
9951;DHT22;24074;49.254;6.702;2023-06-14T04:55:17;14.20;99.90
9951;DHT22;24074;49.254;6.702;2023-06-14T04:57:44;14.60;99.90
9951;DHT22;24074;49.254;6.702;2023-06-14T05:00:10;14.80;99.90
9951;DHT22;24074;49.254;6.702;2023-06-14T05:02:37;15.00;99.90
9951;DHT22;24074;49.254;6.702;2023-06-14T05:05:03;15.30;99.90
9951;DHT22;24074;49.254;6.702;2023-06-14T05:07:32;15.60;99.90
9951;DHT22;24074;49.254;6.702;2023-06-14T05:09:59;15.70;99.90
9951;DHT22;24074;49.254;6.702;2023-06-14T05:12:25;16.00;99.90
9951;DHT22;24074;49.254;6.702;2023-06-14T05:14:50;16.20;99.90
9951;DHT22;24074;49.254;6.702;2023-06-14T05:17:16;16.40;99.90
9951;DHT22;24074;49.254;6.702;2023-06-14T05:19:42;16.70;99.90
9951;DHT22;24074;49.254;6.702;2023-06-14T05:22:08;16.90;99.90
9951;DHT22;24074;49.254;6.702;2023-06-14T05:24:34;17.10;99.90
9951;DHT22;24074;49.254;6.702;2023-06-14T05:27:00;17.30;99.90
9951;DHT22;24074;49.254;6.702;2023-06-14T05:29:25;17.50;99.90
9951;DHT22;24074;49.254;6.702;2023-06-14T05:31:51;17.90;99.90
9951;DHT22;24074;49.254;6.702;2023-06-14T05:34:17;18.40;99.90
9951;DHT22;24074;49.254;6.702;2023-06-14T05:36:42;19.80;99.90
9951;DHT22;24074;49.254;6.702;2023-06-14T05:39:08;21.10;99.90
9951;DHT22;24074;49.254;6.702;2023-06-14T05:41:33;21.80;99.90
9951;DHT22;24074;49.254;6.702;2023-06-14T05:43:59;22.50;98.80
9951;DHT22;24074;49.254;6.702;2023-06-14T05:46:26;23.10;96.70
9951;DHT22;24074;49.254;6.702;2023-06-14T05:48:52;23.60;94.20
9951;DHT22;24074;49.254;6.702;2023-06-14T05:51:17;23.70;93.00
9951;DHT22;24074;49.254;6.702;2023-06-14T05:53:46;24.20;91.70
9951;DHT22;24074;49.254;6.702;2023-06-14T05:56:13;24.30;90.30
9951;DHT22;24074;49.254;6.702;2023-06-14T05:58:39;24.10;89.80
9951;DHT22;24074;49.254;6.702;2023-06-14T06:01:04;24.20;89.10
9951;DHT22;24074;49.254;6.702;2023-06-14T06:03:33;24.10;88.30
9951;DHT22;24074;49.254;6.702;2023-06-14T06:05:59;24.80;87.00
9951;DHT22;24074;49.254;6.702;2023-06-14T06:08:25;25.00;85.20
9951;DHT22;24074;49.254;6.702;2023-06-14T06:10:51;25.60;84.10
9951;DHT22;24074;49.254;6.702;2023-06-14T06:13:16;26.20;80.20
9951;DHT22;24074;49.254;6.702;2023-06-14T06:15:42;26.50;78.50
9951;DHT22;24074;49.254;6.702;2023-06-14T06:18:13;26.40;77.60
9951;DHT22;24074;49.254;6.702;2023-06-14T06:20:39;26.30;78.10
9951;DHT22;24074;49.254;6.702;2023-06-14T06:23:04;26.30;77.20
9951;DHT22;24074;49.254;6.702;2023-06-14T06:25:30;25.90;78.50
9951;DHT22;24074;49.254;6.702;2023-06-14T06:27:57;26.30;77.20
9951;DHT22;24074;49.254;6.702;2023-06-14T06:30:23;26.10;78.00
9951;DHT22;24074;49.254;6.702;2023-06-14T06:32:50;26.10;77.00
9951;DHT22;24074;49.254;6.702;2023-06-14T06:35:16;27.00;75.00
9951;DHT22;24074;49.254;6.702;2023-06-14T06:37:42;27.10;73.30
9951;DHT22;24074;49.254;6.702;2023-06-14T06:40:08;27.30;72.10
9951;DHT22;24074;49.254;6.702;2023-06-14T06:42:34;27.70;71.10
9951;DHT22;24074;49.254;6.702;2023-06-14T06:45:00;27.30;70.50
9951;DHT22;24074;49.254;6.702;2023-06-14T06:47:26;27.20;70.60
9951;DHT22;24074;49.254;6.702;2023-06-14T06:49:52;27.20;70.70
9951;DHT22;24074;49.254;6.702;2023-06-14T06:52:18;27.80;69.40
9951;DHT22;24074;49.254;6.702;2023-06-14T06:54:43;27.70;68.50
9951;DHT22;24074;49.254;6.702;2023-06-14T06:57:09;27.70;69.30
9951;DHT22;24074;49.254;6.702;2023-06-14T06:59:36;28.40;68.60
9951;DHT22;24074;49.254;6.702;2023-06-14T07:02:02;29.30;65.30
9951;DHT22;24074;49.254;6.702;2023-06-14T07:04:27;29.40;64.20
9951;DHT22;24074;49.254;6.702;2023-06-14T07:06:53;29.50;63.20
9951;DHT22;24074;49.254;6.702;2023-06-14T07:09:18;29.40;61.70
9951;DHT22;24074;49.254;6.702;2023-06-14T07:11:47;29.50;62.50
9951;DHT22;24074;49.254;6.702;2023-06-14T07:14:13;29.80;61.20
9951;DHT22;24074;49.254;6.702;2023-06-14T07:16:39;30.10;60.00
9951;DHT22;24074;49.254;6.702;2023-06-14T07:19:06;30.10;59.10
9951;DHT22;24074;49.254;6.702;2023-06-14T07:21:32;30.10;59.40
9951;DHT22;24074;49.254;6.702;2023-06-14T07:23:57;29.70;59.60
9951;DHT22;24074;49.254;6.702;2023-06-14T07:26:23;29.30;59.80
9951;DHT22;24074;49.254;6.702;2023-06-14T07:28:49;30.00;59.30
9951;DHT22;24074;49.254;6.702;2023-06-14T07:31:15;30.30;58.70
9951;DHT22;24074;49.254;6.702;2023-06-14T07:33:41;30.40;57.80
9951;DHT22;24074;49.254;6.702;2023-06-14T07:36:07;30.60;57.90
9951;DHT22;24074;49.254;6.702;2023-06-14T07:38:33;31.20;57.60
9951;DHT22;24074;49.254;6.702;2023-06-14T07:40:59;31.10;56.80
9951;DHT22;24074;49.254;6.702;2023-06-14T07:43:51;31.10;56.90
9951;DHT22;24074;49.254;6.702;2023-06-14T07:46:17;30.90;57.20
9951;DHT22;24074;49.254;6.702;2023-06-14T07:48:43;31.60;56.20
9951;DHT22;24074;49.254;6.702;2023-06-14T07:51:09;32.20;55.00
9951;DHT22;24074;49.254;6.702;2023-06-14T07:53:34;31.50;54.80
9951;DHT22;24074;49.254;6.702;2023-06-14T07:56:00;31.30;56.30
9951;DHT22;24074;49.254;6.702;2023-06-14T07:58:25;31.90;55.00
9951;DHT22;24074;49.254;6.702;2023-06-14T08:00:51;31.20;54.50
9951;DHT22;24074;49.254;6.702;2023-06-14T08:03:16;31.90;54.00
9951;DHT22;24074;49.254;6.702;2023-06-14T08:05:43;31.90;54.00
9951;DHT22;24074;49.254;6.702;2023-06-14T08:08:09;31.60;54.40
9951;DHT22;24074;49.254;6.702;2023-06-14T08:10:34;31.10;54.20
9951;DHT22;24074;49.254;6.702;2023-06-14T08:13:00;31.00;55.40
9951;DHT22;24074;49.254;6.702;2023-06-14T08:15:34;31.70;54.20
9951;DHT22;24074;49.254;6.702;2023-06-14T08:18:00;31.10;53.90
9951;DHT22;24074;49.254;6.702;2023-06-14T08:20:26;31.40;54.30
9951;DHT22;24074;49.254;6.702;2023-06-14T08:22:52;31.60;53.20
9951;DHT22;24074;49.254;6.702;2023-06-14T08:25:21;31.30;53.40
9951;DHT22;24074;49.254;6.702;2023-06-14T08:27:47;31.30;52.50
9951;DHT22;24074;49.254;6.702;2023-06-14T08:30:13;30.60;53.10
9951;DHT22;24074;49.254;6.702;2023-06-14T08:32:39;31.40;53.50
9951;DHT22;24074;49.254;6.702;2023-06-14T08:35:05;32.90;51.70
9951;DHT22;24074;49.254;6.702;2023-06-14T08:37:31;33.40;51.30
9951;DHT22;24074;49.254;6.702;2023-06-14T08:39:58;33.20;51.20
9951;DHT22;24074;49.254;6.702;2023-06-14T08:42:24;32.60;51.20
9951;DHT22;24074;49.254;6.702;2023-06-14T08:44:50;33.20;50.50
9951;DHT22;24074;49.254;6.702;2023-06-14T08:47:16;33.10;50.40
9951;DHT22;24074;49.254;6.702;2023-06-14T08:49:46;33.70;49.40
9951;DHT22;24074;49.254;6.702;2023-06-14T08:52:18;33.90;48.90
9951;DHT22;24074;49.254;6.702;2023-06-14T08:54:45;34.00;48.40
9951;DHT22;24074;49.254;6.702;2023-06-14T08:57:14;32.90;46.90
9951;DHT22;24074;49.254;6.702;2023-06-14T08:59:47;32.80;48.50
9951;DHT22;24074;49.254;6.702;2023-06-14T09:02:17;31.80;48.90
9951;DHT22;24074;49.254;6.702;2023-06-14T09:04:44;31.90;48.90
9951;DHT22;24074;49.254;6.702;2023-06-14T09:07:11;32.00;48.50
9951;DHT22;24074;49.254;6.702;2023-06-14T09:09:41;31.50;48.50
9951;DHT22;24074;49.254;6.702;2023-06-14T09:12:11;31.60;50.00
9951;DHT22;24074;49.254;6.702;2023-06-14T09:14:37;31.80;49.60
9951;DHT22;24074;49.254;6.702;2023-06-14T09:17:05;32.50;48.60
9951;DHT22;24074;49.254;6.702;2023-06-14T09:19:31;32.70;48.10
9951;DHT22;24074;49.254;6.702;2023-06-14T09:21:56;31.50;48.30
9951;DHT22;24074;49.254;6.702;2023-06-14T09:24:25;32.10;48.50
9951;DHT22;24074;49.254;6.702;2023-06-14T09:26:51;32.20;49.00
9951;DHT22;24074;49.254;6.702;2023-06-14T09:29:17;31.90;49.10
9951;DHT22;24074;49.254;6.702;2023-06-14T09:31:46;31.80;48.60
9951;DHT22;24074;49.254;6.702;2023-06-14T09:34:12;31.90;49.60
9951;DHT22;24074;49.254;6.702;2023-06-14T09:36:40;32.70;50.20
9951;DHT22;24074;49.254;6.702;2023-06-14T09:39:06;33.00;48.80
9951;DHT22;24074;49.254;6.702;2023-06-14T09:41:34;33.00;48.10
9951;DHT22;24074;49.254;6.702;2023-06-14T09:44:00;33.20;48.20
9951;DHT22;24074;49.254;6.702;2023-06-14T09:46:28;32.50;47.80
9951;DHT22;24074;49.254;6.702;2023-06-14T09:48:58;32.90;47.20
9951;DHT22;24074;49.254;6.702;2023-06-14T09:51:25;32.70;47.50
9951;DHT22;24074;49.254;6.702;2023-06-14T09:53:52;33.70;47.80
9951;DHT22;24074;49.254;6.702;2023-06-14T09:56:26;34.30;46.60
9951;DHT22;24074;49.254;6.702;2023-06-14T09:58:57;35.10;46.20
9951;DHT22;24074;49.254;6.702;2023-06-14T10:01:27;34.20;45.20
9951;DHT22;24074;49.254;6.702;2023-06-14T10:03:58;34.10;45.80
9951;DHT22;24074;49.254;6.702;2023-06-14T10:06:26;32.90;46.70
9951;DHT22;24074;49.254;6.702;2023-06-14T10:08:56;32.40;48.00
9951;DHT22;24074;49.254;6.702;2023-06-14T10:11:23;33.00;47.10
9951;DHT22;24074;49.254;6.702;2023-06-14T10:13:50;33.00;46.90
9951;DHT22;24074;49.254;6.702;2023-06-14T10:16:28;33.90;46.40
9951;DHT22;24074;49.254;6.702;2023-06-14T10:19:17;32.80;47.30
9951;DHT22;24074;49.254;6.702;2023-06-14T10:22:04;32.70;46.80
9951;DHT22;24074;49.254;6.702;2023-06-14T10:24:34;32.20;46.30
9951;DHT22;24074;49.254;6.702;2023-06-14T10:27:01;33.20;46.10
9951;DHT22;24074;49.254;6.702;2023-06-14T10:29:28;33.60;46.60
9951;DHT22;24074;49.254;6.702;2023-06-14T10:31:59;33.80;45.60
9951;DHT22;24074;49.254;6.702;2023-06-14T10:34:29;34.00;44.50
9951;DHT22;24074;49.254;6.702;2023-06-14T10:37:11;33.20;44.30
9951;DHT22;24074;49.254;6.702;2023-06-14T10:39:43;33.20;44.90
9951;DHT22;24074;49.254;6.702;2023-06-14T10:42:11;33.70;44.60
9951;DHT22;24074;49.254;6.702;2023-06-14T10:47:10;33.50;44.40
9951;DHT22;24074;49.254;6.702;2023-06-14T10:49:43;33.40;44.60
9951;DHT22;24074;49.254;6.702;2023-06-14T10:52:14;32.70;43.60
9951;DHT22;24074;49.254;6.702;2023-06-14T10:57:30;33.90;44.10
9951;DHT22;24074;49.254;6.702;2023-06-14T10:59:58;34.60;45.60
9951;DHT22;24074;49.254;6.702;2023-06-14T11:05:08;33.50;43.30
9951;DHT22;24074;49.254;6.702;2023-06-14T11:10:10;31.60;45.20
9951;DHT22;24074;49.254;6.702;2023-06-14T11:12:41;31.80;46.00
9951;DHT22;24074;49.254;6.702;2023-06-14T11:15:10;32.90;45.30
9951;DHT22;24074;49.254;6.702;2023-06-14T11:17:35;33.00;44.40
9951;DHT22;24074;49.254;6.702;2023-06-14T11:20:10;32.70;46.10
9951;DHT22;24074;49.254;6.702;2023-06-14T11:22:41;32.50;45.00
9951;DHT22;24074;49.254;6.702;2023-06-14T11:25:11;30.30;46.50
9951;DHT22;24074;49.254;6.702;2023-06-14T11:27:37;29.10;48.90
9951;DHT22;24074;49.254;6.702;2023-06-14T11:30:03;28.10;50.30
9951;DHT22;24074;49.254;6.702;2023-06-14T11:32:32;28.20;50.10
9951;DHT22;24074;49.254;6.702;2023-06-14T11:34:57;27.80;51.80
9951;DHT22;24074;49.254;6.702;2023-06-14T11:37:26;27.40;51.70
9951;DHT22;24074;49.254;6.702;2023-06-14T11:39:56;27.40;51.60
9951;DHT22;24074;49.254;6.702;2023-06-14T11:42:22;27.30;52.10
9951;DHT22;24074;49.254;6.702;2023-06-14T11:44:49;27.50;51.70
9951;DHT22;24074;49.254;6.702;2023-06-14T11:47:15;27.50;51.70
9951;DHT22;24074;49.254;6.702;2023-06-14T11:49:40;27.30;51.50
9951;DHT22;24074;49.254;6.702;2023-06-14T11:52:07;27.40;51.70
9951;DHT22;24074;49.254;6.702;2023-06-14T11:54:36;27.60;51.90
9951;DHT22;24074;49.254;6.702;2023-06-14T11:57:01;27.20;53.10
9951;DHT22;24074;49.254;6.702;2023-06-14T11:59:27;27.10;54.10
9951;DHT22;24074;49.254;6.702;2023-06-14T12:01:53;27.30;52.50
9951;DHT22;24074;49.254;6.702;2023-06-14T12:04:28;27.60;52.60
9951;DHT22;24074;49.254;6.702;2023-06-14T12:06:54;27.80;51.80
9951;DHT22;24074;49.254;6.702;2023-06-14T12:09:21;27.30;52.60
9951;DHT22;24074;49.254;6.702;2023-06-14T12:12:00;27.00;53.70
9951;DHT22;24074;49.254;6.702;2023-06-14T12:14:30;27.00;53.30
9951;DHT22;24074;49.254;6.702;2023-06-14T12:17:04;26.90;53.50
9951;DHT22;24074;49.254;6.702;2023-06-14T12:19:32;27.10;54.30
9951;DHT22;24074;49.254;6.702;2023-06-14T12:21:59;27.20;52.90
9951;DHT22;24074;49.254;6.702;2023-06-14T12:24:28;27.00;54.30
9951;DHT22;24074;49.254;6.702;2023-06-14T12:26:57;27.40;53.60
9951;DHT22;24074;49.254;6.702;2023-06-14T12:29:25;27.60;53.00
9951;DHT22;24074;49.254;6.702;2023-06-14T12:31:50;27.70;53.00
9951;DHT22;24074;49.254;6.702;2023-06-14T12:34:16;27.30;53.70
9951;DHT22;24074;49.254;6.702;2023-06-14T12:36:42;27.20;54.00
9951;DHT22;24074;49.254;6.702;2023-06-14T12:39:10;26.90;53.90
9951;DHT22;24074;49.254;6.702;2023-06-14T12:41:36;27.00;54.10
9951;DHT22;24074;49.254;6.702;2023-06-14T12:44:07;27.20;55.40
9951;DHT22;24074;49.254;6.702;2023-06-14T12:46:33;27.50;53.10
9951;DHT22;24074;49.254;6.702;2023-06-14T12:49:00;27.30;53.70
9951;DHT22;24074;49.254;6.702;2023-06-14T12:51:26;27.30;52.90
9951;DHT22;24074;49.254;6.702;2023-06-14T12:53:51;27.20;53.50
9951;DHT22;24074;49.254;6.702;2023-06-14T12:56:17;27.10;53.90
9951;DHT22;24074;49.254;6.702;2023-06-14T12:58:43;27.40;53.70
9951;DHT22;24074;49.254;6.702;2023-06-14T13:01:09;27.70;53.90
9951;DHT22;24074;49.254;6.702;2023-06-14T13:03:35;27.10;54.00
9951;DHT22;24074;49.254;6.702;2023-06-14T13:06:01;27.00;54.90
9951;DHT22;24074;49.254;6.702;2023-06-14T13:08:27;27.10;54.50
9951;DHT22;24074;49.254;6.702;2023-06-14T13:10:53;27.00;54.90
9951;DHT22;24074;49.254;6.702;2023-06-14T13:13:19;27.30;54.90
9951;DHT22;24074;49.254;6.702;2023-06-14T13:15:44;27.30;53.90
9951;DHT22;24074;49.254;6.702;2023-06-14T13:18:12;27.20;55.30
9951;DHT22;24074;49.254;6.702;2023-06-14T13:20:39;27.10;54.70
9951;DHT22;24074;49.254;6.702;2023-06-14T13:23:05;27.10;54.00
9951;DHT22;24074;49.254;6.702;2023-06-14T13:25:36;27.20;53.90
9951;DHT22;24074;49.254;6.702;2023-06-14T13:28:03;27.20;53.90
9951;DHT22;24074;49.254;6.702;2023-06-14T13:30:30;27.00;53.60
9951;DHT22;24074;49.254;6.702;2023-06-14T13:32:56;27.00;55.40
9951;DHT22;24074;49.254;6.702;2023-06-14T13:35:23;27.20;54.70
9951;DHT22;24074;49.254;6.702;2023-06-14T13:37:49;27.30;55.30
9951;DHT22;24074;49.254;6.702;2023-06-14T13:40:14;27.30;54.50
9951;DHT22;24074;49.254;6.702;2023-06-14T13:42:41;27.50;53.70
9951;DHT22;24074;49.254;6.702;2023-06-14T13:45:07;27.40;53.20
9951;DHT22;24074;49.254;6.702;2023-06-14T13:47:33;27.40;54.20
9951;DHT22;24074;49.254;6.702;2023-06-14T13:49:59;27.30;53.40
9951;DHT22;24074;49.254;6.702;2023-06-14T13:52:25;27.50;53.90
9951;DHT22;24074;49.254;6.702;2023-06-14T13:54:50;27.40;53.10
9951;DHT22;24074;49.254;6.702;2023-06-14T13:57:17;27.40;52.80
9951;DHT22;24074;49.254;6.702;2023-06-14T13:59:43;27.60;52.80
9951;DHT22;24074;49.254;6.702;2023-06-14T14:02:12;27.50;53.20
9951;DHT22;24074;49.254;6.702;2023-06-14T14:04:38;27.70;53.10
9951;DHT22;24074;49.254;6.702;2023-06-14T14:07:04;27.50;53.10
9951;DHT22;24074;49.254;6.702;2023-06-14T14:09:31;27.30;53.60
9951;DHT22;24074;49.254;6.702;2023-06-14T14:11:58;27.30;53.60
9951;DHT22;24074;49.254;6.702;2023-06-14T14:14:24;26.80;54.10
9951;DHT22;24074;49.254;6.702;2023-06-14T14:16:51;26.40;54.70
9951;DHT22;24074;49.254;6.702;2023-06-14T14:19:20;26.30;54.20
9951;DHT22;24074;49.254;6.702;2023-06-14T14:21:47;26.70;55.00
9951;DHT22;24074;49.254;6.702;2023-06-14T14:24:14;27.00;54.80
9951;DHT22;24074;49.254;6.702;2023-06-14T14:26:39;27.20;54.70
9951;DHT22;24074;49.254;6.702;2023-06-14T14:29:05;27.30;53.50
9951;DHT22;24074;49.254;6.702;2023-06-14T14:31:32;27.20;55.40
9951;DHT22;24074;49.254;6.702;2023-06-14T14:33:57;27.20;54.70
9951;DHT22;24074;49.254;6.702;2023-06-14T14:36:23;27.20;54.40
9951;DHT22;24074;49.254;6.702;2023-06-14T14:38:48;27.20;54.10
9951;DHT22;24074;49.254;6.702;2023-06-14T14:41:14;27.00;54.70
9951;DHT22;24074;49.254;6.702;2023-06-14T14:43:40;26.90;54.40
9951;DHT22;24074;49.254;6.702;2023-06-14T14:46:05;26.90;54.40
9951;DHT22;24074;49.254;6.702;2023-06-14T14:48:31;27.40;53.50
9951;DHT22;24074;49.254;6.702;2023-06-14T14:50:57;27.70;52.70
9951;DHT22;24074;49.254;6.702;2023-06-14T14:53:22;27.90;53.00
9951;DHT22;24074;49.254;6.702;2023-06-14T14:55:49;27.90;54.10
9951;DHT22;24074;49.254;6.702;2023-06-14T14:58:14;28.10;53.90
9951;DHT22;24074;49.254;6.702;2023-06-14T15:00:44;28.10;53.50
9951;DHT22;24074;49.254;6.702;2023-06-14T15:03:11;28.20;54.70
9951;DHT22;24074;49.254;6.702;2023-06-14T15:05:36;28.00;53.50
9951;DHT22;24074;49.254;6.702;2023-06-14T15:08:03;27.60;54.40
9951;DHT22;24074;49.254;6.702;2023-06-14T15:10:29;27.10;54.00
9951;DHT22;24074;49.254;6.702;2023-06-14T15:12:54;26.90;55.40
9951;DHT22;24074;49.254;6.702;2023-06-14T15:15:21;27.10;55.70
9951;DHT22;24074;49.254;6.702;2023-06-14T15:17:47;27.20;55.10
9951;DHT22;24074;49.254;6.702;2023-06-14T15:20:12;27.30;55.40
9951;DHT22;24074;49.254;6.702;2023-06-14T15:22:39;26.60;54.70
9951;DHT22;24074;49.254;6.702;2023-06-14T15:25:05;26.50;55.10
9951;DHT22;24074;49.254;6.702;2023-06-14T15:27:31;27.00;55.50
9951;DHT22;24074;49.254;6.702;2023-06-14T15:29:56;27.50;54.70
9951;DHT22;24074;49.254;6.702;2023-06-14T15:32:22;27.50;54.50
9951;DHT22;24074;49.254;6.702;2023-06-14T15:34:48;27.60;54.70
9951;DHT22;24074;49.254;6.702;2023-06-14T15:37:13;27.60;55.40
9951;DHT22;24074;49.254;6.702;2023-06-14T15:39:39;27.30;55.30
9951;DHT22;24074;49.254;6.702;2023-06-14T15:42:05;27.00;55.60
9951;DHT22;24074;49.254;6.702;2023-06-14T15:44:31;27.00;55.70
9951;DHT22;24074;49.254;6.702;2023-06-14T15:46:57;26.90;55.70
9951;DHT22;24074;49.254;6.702;2023-06-14T15:49:22;27.00;56.00
9951;DHT22;24074;49.254;6.702;2023-06-14T15:51:48;26.90;55.70
9951;DHT22;24074;49.254;6.702;2023-06-14T15:54:14;26.90;55.80
9951;DHT22;24074;49.254;6.702;2023-06-14T15:56:39;26.60;55.50